createdAt,value
2023-03-06T00:01:33.124Z,6.78
2023-03-06T00:04:08.598Z,7.50
2023-03-06T00:06:40.865Z,6.65
2023-03-06T00:09:13.532Z,5.38
2023-03-06T00:11:48.468Z,5.82
2023-03-06T00:14:21.051Z,5.35
2023-03-06T00:16:53.404Z,4.20
2023-03-06T00:19:26.083Z,3.15
2023-03-06T00:21:58.292Z,4.30
2023-03-06T00:24:30.704Z,4.88
2023-03-06T00:27:05.568Z,5.82
2023-03-06T00:29:38.117Z,5.20
2023-03-06T00:32:11.256Z,4.95
2023-03-06T00:34:43.942Z,5.60
2023-03-06T00:37:16.187Z,5.80
2023-03-06T00:39:49.849Z,6.10
2023-03-06T00:42:24.798Z,6.70
2023-03-06T00:44:57.461Z,7.22
2023-03-06T00:47:29.861Z,7.70
2023-03-06T00:50:02.357Z,7.93
2023-03-06T00:52:34.592Z,7.60
2023-03-06T00:55:09.720Z,7.07
2023-03-06T00:57:44.709Z,7.53
2023-03-06T01:00:19.005Z,6.93
2023-03-06T01:02:51.118Z,7.72
2023-03-06T01:05:25.237Z,8.50
2023-03-06T01:07:57.398Z,8.25
2023-03-06T01:10:30.356Z,7.53
2023-03-06T01:13:05.176Z,8.57
2023-03-06T01:15:37.737Z,8.90
2023-03-06T01:18:10.053Z,9.30
2023-03-06T01:20:42.761Z,9.70
2023-03-06T01:23:14.838Z,9.90
2023-03-06T01:25:47.376Z,9.70
2023-03-06T01:31:12.564Z,10.13
2023-03-06T01:33:44.914Z,9.23
2023-03-06T01:36:17.378Z,10.07
2023-03-06T01:38:49.617Z,10.32
2023-03-06T01:41:23.065Z,10.05
2023-03-06T01:43:58.142Z,10.65
2023-03-06T01:46:42.072Z,10.88
2023-03-06T01:49:24.282Z,12.55
2023-03-06T01:52:00.661Z,11.15
2023-03-06T01:54:39.478Z,11.40
2023-03-06T01:57:17.219Z,12.45
2023-03-06T01:59:57.101Z,13.55
2023-03-06T02:02:29.952Z,13.32
2023-03-06T02:05:03.065Z,13.15
2023-03-06T02:07:36.982Z,13.13
2023-03-06T02:10:10.263Z,13.80
2023-03-06T02:12:45.124Z,13.40
2023-03-06T02:15:24.224Z,12.88
2023-03-06T02:17:56.922Z,13.98
2023-03-06T02:20:34.523Z,12.88
2023-03-06T02:23:11.843Z,13.38
2023-03-06T02:25:49.533Z,13.13
2023-03-06T02:28:24.228Z,13.50
2023-03-06T02:30:57.812Z,13.13
2023-03-06T02:33:31.842Z,13.48
2023-03-06T02:36:05.804Z,13.52
2023-03-06T02:38:43.808Z,12.10
2023-03-06T02:41:18.910Z,12.38
2023-03-06T02:43:53.468Z,11.73
2023-03-06T02:46:25.301Z,12.18
2023-03-06T02:48:57.824Z,11.88
2023-03-06T02:51:29.845Z,11.07
2023-03-06T02:54:02.022Z,12.40
2023-03-06T02:56:36.758Z,11.35
2023-03-06T02:59:10.680Z,11.85
2023-03-06T03:01:43.043Z,11.27
2023-03-06T03:04:15.719Z,11.48
2023-03-06T03:06:49.366Z,9.73
2023-03-06T03:09:21.877Z,9.95
2023-03-06T03:11:56.458Z,10.35
2023-03-06T03:14:30.136Z,9.80
2023-03-06T03:17:03.743Z,9.88
2023-03-06T03:19:37.577Z,8.80
2023-03-06T03:22:10.177Z,9.02
2023-03-06T03:24:43.945Z,8.70
2023-03-06T03:27:23.228Z,8.15
2023-03-06T03:29:55.409Z,8.32
2023-03-06T03:32:28.052Z,7.50
2023-03-06T03:35:00.980Z,7.95
2023-03-06T03:37:33.000Z,7.35
2023-03-06T03:40:07.044Z,7.53
2023-03-06T03:42:44.207Z,8.07
2023-03-06T03:45:17.365Z,7.13
2023-03-06T03:47:49.205Z,8.05
2023-03-06T03:50:21.627Z,6.95
2023-03-06T03:52:53.441Z,6.97
2023-03-06T03:55:25.721Z,6.60
2023-03-06T03:58:02.481Z,6.63
2023-03-06T04:00:35.081Z,6.93
2023-03-06T04:03:09.306Z,6.50
2023-03-06T04:05:41.402Z,7.55
2023-03-06T04:08:13.399Z,6.80
2023-03-06T04:10:45.437Z,7.90
2023-03-06T04:13:21.299Z,8.85
2023-03-06T04:15:56.689Z,9.45
2023-03-06T04:18:29.548Z,9.82
2023-03-06T04:21:01.932Z,8.30
2023-03-06T04:23:34.285Z,6.95
2023-03-06T04:26:07.523Z,7.30
2023-03-06T04:28:42.464Z,8.27
2023-03-06T04:31:15.697Z,7.35
2023-03-06T04:33:48.005Z,7.05
2023-03-06T04:36:30.201Z,7.57
2023-03-06T04:39:03.207Z,7.65
2023-03-06T04:41:35.643Z,6.75
2023-03-06T04:44:11.062Z,7.45
2023-03-06T04:46:43.641Z,6.80
2023-03-06T04:49:15.927Z,6.75
2023-03-06T04:51:48.445Z,8.15
2023-03-06T04:54:20.765Z,8.07
2023-03-06T04:56:53.493Z,6.82
2023-03-06T04:59:28.263Z,7.68
2023-03-06T05:02:00.723Z,6.53
2023-03-06T05:04:32.817Z,6.90
2023-03-06T05:07:05.340Z,6.75
2023-03-06T05:09:39.116Z,6.93
2023-03-06T05:12:12.080Z,7.18
2023-03-06T05:14:48.094Z,6.80
2023-03-06T05:17:20.799Z,6.82
2023-03-06T05:19:53.378Z,6.38
2023-03-06T05:22:26.042Z,6.25
2023-03-06T05:24:58.163Z,6.22
2023-03-06T05:27:31.216Z,6.30
2023-03-06T05:30:06.024Z,6.07
2023-03-06T05:32:38.921Z,6.15
2023-03-06T05:35:11.997Z,5.68
2023-03-06T05:37:44.760Z,6.43
2023-03-06T05:40:17.751Z,6.90
2023-03-06T05:42:50.338Z,7.03
2023-03-06T05:45:24.704Z,8.02
2023-03-06T05:47:56.828Z,8.05
2023-03-06T05:50:28.646Z,7.13
2023-03-06T05:53:01.016Z,7.97
2023-03-06T05:55:32.462Z,7.18
2023-03-06T05:58:04.190Z,7.80
2023-03-06T06:00:38.009Z,8.32
2023-03-06T06:03:09.763Z,8.60
2023-03-06T06:05:42.565Z,9.90
2023-03-06T06:08:14.252Z,10.18
2023-03-06T06:10:45.503Z,11.00
2023-03-06T06:13:17.301Z,10.80
2023-03-06T06:15:51.324Z,9.80
2023-03-06T06:18:23.049Z,9.63
2023-03-06T06:20:55.946Z,10.13
2023-03-06T06:23:27.845Z,10.35
2023-03-06T06:26:01.964Z,9.15
2023-03-06T06:28:34.061Z,9.13
2023-03-06T06:31:12.576Z,9.95
2023-03-06T06:33:45.695Z,9.48
2023-03-06T06:36:21.667Z,9.13
2023-03-06T06:38:53.754Z,8.95
2023-03-06T06:41:46.160Z,7.90
2023-03-06T06:44:17.475Z,8.40
2023-03-06T06:49:42.828Z,9.70
2023-03-06T06:52:14.219Z,9.30
2023-03-06T06:54:45.772Z,9.55
2023-03-06T06:57:17.516Z,7.47
2023-03-06T06:59:49.730Z,7.78
2023-03-06T07:02:25.617Z,7.72
2023-03-06T07:05:04.064Z,7.50
2023-03-06T07:07:38.716Z,7.45
2023-03-06T07:10:15.339Z,6.93
2023-03-06T07:12:46.792Z,7.25
2023-03-06T07:15:19.658Z,7.78
2023-03-06T07:17:53.539Z,7.53
2023-03-06T07:20:25.562Z,7.72
2023-03-06T07:22:56.864Z,8.02
2023-03-06T07:25:29.605Z,8.18
2023-03-06T07:28:00.814Z,6.00
2023-03-06T07:30:32.640Z,6.22
2023-03-06T07:33:06.398Z,5.65
2023-03-06T07:35:38.185Z,5.95
2023-03-06T07:38:09.436Z,5.65
2023-03-06T07:40:41.901Z,5.97
2023-03-06T07:43:19.400Z,5.80
2023-03-06T07:46:00.192Z,6.72
2023-03-06T07:48:34.417Z,6.30
2023-03-06T07:51:08.795Z,6.25
2023-03-06T07:53:40.256Z,6.47
2023-03-06T07:56:12.917Z,8.82
2023-03-06T07:58:47.440Z,8.90
2023-03-06T08:01:21.712Z,7.90
2023-03-06T08:03:56.666Z,8.63
2023-03-06T08:06:30.073Z,9.10
2023-03-06T08:09:01.518Z,9.07
2023-03-06T08:11:34.123Z,9.18
2023-03-06T08:14:05.815Z,9.98
2023-03-06T08:16:37.825Z,7.80
2023-03-06T08:19:11.983Z,8.98
2023-03-06T08:21:44.420Z,7.15
2023-03-06T08:24:16.994Z,6.95
2023-03-06T08:26:49.278Z,6.93
2023-03-06T08:29:20.749Z,6.13
2023-03-06T08:31:52.409Z,6.45
2023-03-06T08:34:27.547Z,5.80
2023-03-06T08:36:59.566Z,5.93
2023-03-06T08:39:30.919Z,4.90
2023-03-06T08:42:02.992Z,4.70
2023-03-06T08:44:35.059Z,4.50
2023-03-06T08:47:07.852Z,4.85
2023-03-06T08:49:42.705Z,4.18
2023-03-06T08:52:15.085Z,4.35
2023-03-06T08:54:46.879Z,5.05
2023-03-06T08:57:19.311Z,4.60
2023-03-06T08:59:50.827Z,4.57
2023-03-06T09:02:22.836Z,4.05
2023-03-06T09:04:57.373Z,4.93
2023-03-06T09:07:29.408Z,5.38
2023-03-06T09:10:01.647Z,5.00
2023-03-06T09:12:43.892Z,5.25
2023-03-06T09:15:22.161Z,4.38
2023-03-06T09:17:54.773Z,4.25
2023-03-06T09:20:29.365Z,4.22
2023-03-06T09:23:01.026Z,4.43
2023-03-06T09:25:32.712Z,3.58
2023-03-06T09:28:11.398Z,4.00
2023-03-06T09:30:44.345Z,4.25
2023-03-06T09:33:16.630Z,4.40
2023-03-06T09:35:54.176Z,4.43
2023-03-06T09:38:27.766Z,3.05
2023-03-06T09:43:42.468Z,4.90
2023-03-06T09:46:26.145Z,4.20
2023-03-06T09:49:26.082Z,4.20
2023-03-06T09:52:16.652Z,3.50
2023-03-06T09:54:50.392Z,3.22
2023-03-06T09:57:27.041Z,3.35
2023-03-06T10:00:05.196Z,3.45
2023-03-06T10:02:44.243Z,3.80
2023-03-06T10:05:22.950Z,4.07
2023-03-06T10:08:03.823Z,3.63
2023-03-06T10:10:46.472Z,4.72
2023-03-06T10:13:24.114Z,7.55
2023-03-06T10:16:05.202Z,7.00
2023-03-06T10:18:38.915Z,5.97
2023-03-06T10:21:29.903Z,6.28
2023-03-06T10:24:12.599Z,4.95
2023-03-06T10:26:52.694Z,3.78
2023-03-06T10:30:00.124Z,5.15
2023-03-06T10:32:49.167Z,3.63
2023-03-06T10:35:26.124Z,3.05
2023-03-06T10:38:04.333Z,3.10
2023-03-06T10:40:49.951Z,3.60
2023-03-06T10:43:21.364Z,3.28
2023-03-06T10:45:54.307Z,2.85
2023-03-06T10:48:28.060Z,2.47
2023-03-06T10:51:19.148Z,2.67
2023-03-06T10:53:57.120Z,2.70
2023-03-06T10:56:37.758Z,3.10
2023-03-06T10:59:14.629Z,2.40
2023-03-06T11:01:47.534Z,2.75
2023-03-06T11:07:57.882Z,2.80
2023-03-06T11:10:35.534Z,3.42
2023-03-06T11:13:25.522Z,3.10
2023-03-06T11:16:08.547Z,2.65
2023-03-06T11:18:44.494Z,2.63
2023-03-06T11:21:31.744Z,3.10
2023-03-06T11:24:12.363Z,2.80
2023-03-06T11:26:51.122Z,2.53
2023-03-06T11:29:39.570Z,3.00
2023-03-06T11:32:18.467Z,3.10
2023-03-06T11:34:54.810Z,3.25
2023-03-06T11:37:44.243Z,2.72
2023-03-06T11:40:22.910Z,2.58
2023-03-06T11:43:04.720Z,2.97
2023-03-06T11:45:47.855Z,2.97
2023-03-06T11:48:27.652Z,2.60
2023-03-06T11:51:08.831Z,2.75
2023-03-06T11:53:43.231Z,2.80
2023-03-06T11:56:31.705Z,3.22
2023-03-06T11:59:16.227Z,3.90
2023-03-06T12:01:57.751Z,2.88
2023-03-06T12:04:44.657Z,3.10
2023-03-06T12:07:32.311Z,2.60
2023-03-06T12:10:16.344Z,3.03
2023-03-06T12:16:51.971Z,4.45
2023-03-06T12:19:37.082Z,4.35
2023-03-06T12:22:33.667Z,3.97
2023-03-06T12:25:25.851Z,2.95
2023-03-06T12:28:14.516Z,4.25
2023-03-06T12:31:18.403Z,5.03
2023-03-06T12:34:04.861Z,4.20
2023-03-06T12:37:01.205Z,3.50
2023-03-06T12:39:52.633Z,4.13
2023-03-06T12:42:50.378Z,5.43
2023-03-06T12:45:37.386Z,5.47
2023-03-06T12:48:18.144Z,5.20
2023-03-06T12:50:50.704Z,4.72
2023-03-06T12:53:31.460Z,4.10
2023-03-06T12:56:04.967Z,4.38
2023-03-06T12:58:53.205Z,4.95
2023-03-06T13:01:50.692Z,4.65
2023-03-06T13:04:37.219Z,4.53
2023-03-06T13:07:23.081Z,3.90
2023-03-06T13:10:11.470Z,3.72
2023-03-06T13:13:01.254Z,3.20
2023-03-06T13:15:42.424Z,3.50
2023-03-06T13:18:52.256Z,3.65
2023-03-06T13:21:53.887Z,2.95
2023-03-06T13:24:28.402Z,3.17
2023-03-06T13:27:11.984Z,3.97
2023-03-06T13:30:19.776Z,2.97
2023-03-06T13:32:53.129Z,3.90
2023-03-06T13:35:49.199Z,3.75
2023-03-06T13:38:38.788Z,3.30
2023-03-06T13:41:29.915Z,2.90
2023-03-06T13:44:05.911Z,3.00
2023-03-06T13:46:41.990Z,3.15
2023-03-06T13:49:26.476Z,2.80
2023-03-06T13:52:23.361Z,3.40
2023-03-06T13:55:05.832Z,3.10
2023-03-06T13:58:01.285Z,3.58
2023-03-06T14:01:08.309Z,3.63
2023-03-06T14:04:22.259Z,3.70
2023-03-06T14:07:06.584Z,2.95
2023-03-06T14:09:44.386Z,3.45
2023-03-06T14:12:26.134Z,2.97
2023-03-06T14:15:00.852Z,2.75
2023-03-06T14:17:36.877Z,3.00
2023-03-06T14:20:18.108Z,3.05
2023-03-06T14:22:51.955Z,2.40
2023-03-06T14:25:32.014Z,2.42
2023-03-06T14:28:19.176Z,2.67
2023-03-06T14:30:54.537Z,2.70
2023-03-06T14:33:45.318Z,2.60
2023-03-06T14:36:20.189Z,2.53
2023-03-06T14:38:55.718Z,2.63
2023-03-06T14:41:30.285Z,2.17
2023-03-06T14:44:19.609Z,2.38
2023-03-06T14:46:55.238Z,1.90
2023-03-06T14:49:29.611Z,2.20
2023-03-06T14:52:04.145Z,2.50
2023-03-06T14:54:38.071Z,2.35
2023-03-06T14:57:16.307Z,2.05
2023-03-06T15:00:07.218Z,1.98
2023-03-06T15:02:41.933Z,2.05
2023-03-06T15:05:24.485Z,1.90
2023-03-06T15:08:00.098Z,1.80
2023-03-06T15:10:36.565Z,1.92
2023-03-06T15:13:12.546Z,2.20
2023-03-06T15:15:43.867Z,1.77
2023-03-06T15:18:39.008Z,1.92
2023-03-06T15:21:19.201Z,2.17
2023-03-06T15:23:54.700Z,3.92
2023-03-06T15:26:33.141Z,2.17
2023-03-06T15:29:19.723Z,2.28
2023-03-06T15:31:50.887Z,2.30
2023-03-06T15:34:27.696Z,1.90
2023-03-06T15:37:01.752Z,1.65
2023-03-06T15:39:41.768Z,2.00
2023-03-06T15:42:30.829Z,1.92
2023-03-06T15:45:06.544Z,2.22
2023-03-06T15:47:37.598Z,1.77
2023-03-06T15:50:17.437Z,1.77
2023-03-06T15:52:52.369Z,2.00
2023-03-06T15:55:25.863Z,1.70
2023-03-06T15:57:59.944Z,1.60
2023-03-06T16:00:34.723Z,1.70
2023-03-06T16:03:06.259Z,2.00
2023-03-06T16:05:37.721Z,2.00
2023-03-06T16:08:15.042Z,1.63
2023-03-06T16:10:48.097Z,1.60
2023-03-06T16:13:24.055Z,1.50
2023-03-06T16:15:57.691Z,1.77
2023-03-06T16:18:28.717Z,1.60
2023-03-06T16:21:00.283Z,1.90
2023-03-06T16:23:39.156Z,1.55
2023-03-06T16:26:22.312Z,1.63
2023-03-06T16:28:53.533Z,1.67
2023-03-06T16:31:25.057Z,1.63
2023-03-06T16:33:56.271Z,1.50
2023-03-06T16:36:30.301Z,1.60
2023-03-06T16:39:06.757Z,1.80
2023-03-06T16:41:38.455Z,1.85
2023-03-06T16:44:10.825Z,1.73
2023-03-06T16:46:46.083Z,2.08
2023-03-06T16:49:20.784Z,2.05
2023-03-06T16:51:53.494Z,2.33
2023-03-06T16:54:27.304Z,2.00
2023-03-06T16:56:58.770Z,2.05
2023-03-06T16:59:29.986Z,2.00
2023-03-06T17:02:01.652Z,2.33
2023-03-06T17:04:33.686Z,2.00
2023-03-06T17:07:06.008Z,2.65
2023-03-06T17:09:41.840Z,2.70
2023-03-06T17:12:13.742Z,2.42
2023-03-06T17:14:51.133Z,2.08
2023-03-06T17:17:23.969Z,2.10
2023-03-06T17:19:56.856Z,2.03
2023-03-06T17:22:30.616Z,2.30
2023-03-06T17:25:07.177Z,2.17
2023-03-06T17:27:41.140Z,3.22
2023-03-06T17:30:15.415Z,2.40
2023-03-06T17:32:48.544Z,2.88
2023-03-06T17:35:21.257Z,3.00
2023-03-06T17:46:00.171Z,2.72
2023-03-06T17:48:36.616Z,2.30
2023-03-06T17:51:11.404Z,2.75
2023-03-06T17:53:43.188Z,3.15
2023-03-06T17:56:17.013Z,2.88
2023-03-06T17:58:49.460Z,2.78
2023-03-06T18:01:27.653Z,2.85
2023-03-06T18:03:59.203Z,3.35
2023-03-06T18:06:32.094Z,3.35
2023-03-06T18:09:04.076Z,3.88
2023-03-06T18:11:37.556Z,3.85
2023-03-06T18:14:09.813Z,4.22
2023-03-06T18:16:44.548Z,4.80
2023-03-06T18:19:18.397Z,4.65
2023-03-06T18:21:50.188Z,4.80
2023-03-06T18:24:23.763Z,5.53
2023-03-06T18:26:55.539Z,5.35
2023-03-06T18:29:26.977Z,6.45
2023-03-06T18:32:02.474Z,6.15
2023-03-06T18:34:34.278Z,7.00
2023-03-06T18:40:14.147Z,7.85
2023-03-06T18:42:46.102Z,7.63
2023-03-06T18:45:17.467Z,8.77
2023-03-06T18:47:52.039Z,8.95
2023-03-06T18:50:23.711Z,8.93
2023-03-06T18:52:55.221Z,9.65
2023-03-06T18:55:26.746Z,10.15
2023-03-06T18:57:58.355Z,10.43
2023-03-06T19:00:29.695Z,10.68
2023-03-06T19:03:04.367Z,10.43
2023-03-06T19:05:36.229Z,10.15
2023-03-06T19:08:08.322Z,10.40
2023-03-06T19:10:40.963Z,10.20
2023-03-06T19:13:13.795Z,10.70
2023-03-06T19:15:47.395Z,11.93
2023-03-06T19:18:21.510Z,10.75
2023-03-06T19:20:52.972Z,11.65
2023-03-06T19:23:26.713Z,10.68
2023-03-06T19:26:10.114Z,10.25
2023-03-06T19:28:58.322Z,10.52
2023-03-06T19:31:31.198Z,10.25
2023-03-06T19:34:06.091Z,9.52
2023-03-06T19:36:39.013Z,10.93
2023-03-06T19:39:12.466Z,9.88
2023-03-06T19:41:44.348Z,9.52
2023-03-06T19:44:24.117Z,10.40
2023-03-06T19:50:21.122Z,9.88
2023-03-06T19:52:52.740Z,9.70
2023-03-06T19:55:24.891Z,10.57
2023-03-06T19:57:57.055Z,10.20
2023-03-06T20:00:28.558Z,9.50
2023-03-06T20:03:00.345Z,9.48
2023-03-06T20:05:34.397Z,10.23
2023-03-06T20:08:06.117Z,10.45
2023-03-06T20:10:40.040Z,10.40
2023-03-06T20:13:11.942Z,10.38
2023-03-06T20:15:43.675Z,10.38
2023-03-06T20:18:15.767Z,10.15
2023-03-06T20:21:00.389Z,10.52
2023-03-06T20:23:33.066Z,10.38
2023-03-06T20:26:09.676Z,10.05
2023-03-06T20:28:43.138Z,10.10
2023-03-06T20:31:16.822Z,9.27
2023-03-06T20:33:50.837Z,9.15
2023-03-06T20:36:29.167Z,9.65
2023-03-06T20:39:04.179Z,10.63
2023-03-06T20:41:36.425Z,9.43
2023-03-06T20:44:13.321Z,10.00
2023-03-06T20:46:47.906Z,10.68
2023-03-06T20:49:19.616Z,10.25
2023-03-06T20:51:53.597Z,10.07
2023-03-06T20:54:25.403Z,9.63
2023-03-06T20:56:56.876Z,9.48
2023-03-06T20:59:30.875Z,10.50
2023-03-06T21:02:03.068Z,11.15
2023-03-06T21:04:35.101Z,10.52
2023-03-06T21:07:09.381Z,10.48
2023-03-06T21:09:42.043Z,10.40
2023-03-06T21:12:13.201Z,10.52
2023-03-06T21:14:44.858Z,10.63
2023-03-06T21:17:16.273Z,11.45
2023-03-06T21:19:48.026Z,11.30
2023-03-06T21:22:22.630Z,11.25
2023-03-06T21:24:54.520Z,11.20
2023-03-06T21:27:27.623Z,10.40
2023-03-06T21:29:59.294Z,11.38
2023-03-06T21:32:30.684Z,9.77
2023-03-06T21:35:02.139Z,9.05
2023-03-06T21:37:36.125Z,9.27
2023-03-06T21:40:09.541Z,10.07
2023-03-06T21:42:40.476Z,9.52
2023-03-06T21:45:13.740Z,10.18
2023-03-06T21:47:45.342Z,10.13
2023-03-06T21:50:18.919Z,9.25
2023-03-06T21:52:53.492Z,8.88
2023-03-06T21:55:25.963Z,9.02
2023-03-06T21:57:58.423Z,9.60
2023-03-06T22:00:30.433Z,9.52
2023-03-06T22:03:03.805Z,9.65
2023-03-06T22:05:35.977Z,10.75
2023-03-06T22:08:10.415Z,10.18
2023-03-06T22:10:43.061Z,10.00
2023-03-06T22:13:15.323Z,9.73
2023-03-06T22:15:55.581Z,9.95
2023-03-06T22:18:29.421Z,10.48
2023-03-06T22:21:03.063Z,9.98
2023-03-06T22:23:37.513Z,10.05
2023-03-06T22:26:12.722Z,10.43
2023-03-06T22:28:45.406Z,9.38
2023-03-06T22:31:21.738Z,9.73
2023-03-06T22:33:55.452Z,9.98
2023-03-06T22:36:28.116Z,10.02
2023-03-06T22:39:04.417Z,9.65
2023-03-06T22:41:39.286Z,9.52
2023-03-06T22:44:10.986Z,9.40
2023-03-06T22:50:08.552Z,9.88
2023-03-06T22:52:40.546Z,10.07
2023-03-06T22:55:15.304Z,9.75
2023-03-06T22:57:48.024Z,9.30
2023-03-06T23:00:20.499Z,9.63
2023-03-06T23:02:54.452Z,9.85
2023-03-06T23:05:29.347Z,10.52
2023-03-06T23:08:03.500Z,9.60
2023-03-06T23:10:40.613Z,10.57
2023-03-06T23:13:12.586Z,10.25
2023-03-06T23:15:44.469Z,10.73
2023-03-06T23:18:17.062Z,10.63
2023-03-06T23:20:49.020Z,10.00
2023-03-06T23:23:21.360Z,11.80
2023-03-06T23:25:56.601Z,11.32
2023-03-06T23:28:29.128Z,11.13
2023-03-06T23:31:01.079Z,10.82
2023-03-06T23:33:33.718Z,11.15
2023-03-06T23:36:06.205Z,11.75
2023-03-06T23:38:39.359Z,11.70
2023-03-06T23:41:16.500Z,11.88
2023-03-06T23:43:58.021Z,11.00
2023-03-06T23:46:29.879Z,12.35
2023-03-06T23:49:02.359Z,12.85
2023-03-06T23:51:33.837Z,11.73
2023-03-06T23:54:05.490Z,13.48
2023-03-06T23:56:39.348Z,13.38
2023-03-06T23:59:13.176Z,14.40
